Time;durP1;ratioP1;P1;durP2;ratioP2;P2;SDS_P1;SDS_P2;PMS_P1;PMS_P2;Temp;Humidity;BMP_temperature;BMP_pressure;BME280_temperature;BME280_humidity;BME280_pressure;Samples;Min_cycle;Max_cycle;Signal;HPM_P1;HPM_P2
2023/12/29 00:00:08;;;;;;;;;;;9.90;99.90;;;;;;5102732;27;19938;-80
2023/12/29 00:02:34;;;;;;;;;;;9.80;99.90;;;;;;5105478;27;19927;-84
2023/12/29 00:04:59;;;;;;;;;;;9.80;99.90;;;;;;5085793;27;19935;-81
2023/12/29 00:07:25;;;;;;;;;;;9.80;99.90;;;;;;5088680;27;19938;-79
2023/12/29 00:09:51;;;;;;;;;;;9.80;99.90;;;;;;5101307;27;19962;-80
2023/12/29 00:12:16;;;;;;;;;;;9.80;99.90;;;;;;5101312;27;20461;-81
2023/12/29 00:14:43;;;;;;;;;;;9.80;99.90;;;;;;5103813;27;20330;-79
2023/12/29 00:17:09;;;;;;;;;;;9.70;99.90;;;;;;5104210;27;19927;-82
2023/12/29 00:19:34;;;;;;;;;;;9.70;99.90;;;;;;5107436;27;20288;-83
2023/12/29 00:22:02;;;;;;;;;;;9.70;99.90;;;;;;5106864;27;20292;-82
2023/12/29 00:24:31;;;;;;;;;;;9.70;99.90;;;;;;5102607;27;20009;-81
2023/12/29 00:26:57;;;;;;;;;;;9.70;99.90;;;;;;5107222;27;20447;-80
2023/12/29 00:29:23;;;;;;;;;;;9.70;99.90;;;;;;5095857;27;20290;-83
2023/12/29 00:31:48;;;;;;;;;;;9.70;99.90;;;;;;5096093;27;19927;-83
2023/12/29 00:34:14;;;;;;;;;;;9.70;99.90;;;;;;5095050;27;19930;-79
2023/12/29 00:36:40;;;;;;;;;;;9.70;99.90;;;;;;5102395;27;21919;-81
2023/12/29 00:39:06;;;;;;;;;;;9.70;99.90;;;;;;5091658;27;20728;-79
2023/12/29 00:41:32;;;;;;;;;;;9.70;99.90;;;;;;5096980;27;19927;-80
2023/12/29 00:43:57;;;;;;;;;;;9.70;99.90;;;;;;5107516;27;19927;-79
2023/12/29 00:46:23;;;;;;;;;;;9.70;99.90;;;;;;5105145;27;19934;-84
2023/12/29 00:48:49;;;;;;;;;;;9.70;99.90;;;;;;5108280;27;19966;-83
2023/12/29 00:51:14;;;;;;;;;;;9.70;99.90;;;;;;5105142;27;19934;-83
2023/12/29 00:53:40;;;;;;;;;;;9.70;99.90;;;;;;5087999;27;20312;-79
2023/12/29 00:56:12;;;;;;;;;;;9.60;99.90;;;;;;5105260;27;19923;-83
2023/12/29 00:58:38;;;;;;;;;;;9.60;99.90;;;;;;5092149;27;19942;-79
2023/12/29 01:01:05;;;;;;;;;;;9.60;99.90;;;;;;5093389;27;19950;-82
2023/12/29 01:03:30;;;;;;;;;;;10.10;99.90;;;;;;5088189;27;19928;-82
2023/12/29 01:05:56;;;;;;;;;;;9.70;99.90;;;;;;5083549;27;20654;-79
2023/12/29 01:08:21;;;;;;;;;;;9.70;99.90;;;;;;5103364;27;19935;-81
2023/12/29 01:10:47;;;;;;;;;;;9.70;99.90;;;;;;5102496;27;19928;-81
2023/12/29 01:13:16;;;;;;;;;;;9.70;99.90;;;;;;5124878;27;19930;-80
2023/12/29 01:15:45;;;;;;;;;;;9.70;99.90;;;;;;5101173;27;21784;-79
2023/12/29 01:18:11;;;;;;;;;;;9.70;99.90;;;;;;5109876;27;20255;-83
2023/12/29 01:20:39;;;;;;;;;;;9.80;99.90;;;;;;5103980;27;20187;-80
2023/12/29 01:23:04;;;;;;;;;;;9.80;99.90;;;;;;5113128;27;19927;-80
2023/12/29 01:25:30;;;;;;;;;;;9.80;99.90;;;;;;5104975;27;20408;-82
2023/12/29 01:27:56;;;;;;;;;;;9.70;99.90;;;;;;5108580;27;19927;-84
2023/12/29 01:30:21;;;;;;;;;;;9.70;99.90;;;;;;5090864;27;19926;-81
2023/12/29 01:32:47;;;;;;;;;;;9.70;99.90;;;;;;5103735;27;20301;-82
2023/12/29 01:35:12;;;;;;;;;;;9.70;99.90;;;;;;5085907;27;19931;-80
2023/12/29 01:37:38;;;;;;;;;;;9.60;99.90;;;;;;5123188;27;19931;-81
2023/12/29 01:40:04;;;;;;;;;;;9.60;99.90;;;;;;5101706;27;19931;-80
2023/12/29 01:42:30;;;;;;;;;;;9.60;99.90;;;;;;5105195;27;19931;-83
2023/12/29 01:44:55;;;;;;;;;;;9.60;99.90;;;;;;5110935;27;19933;-83
2023/12/29 01:47:22;;;;;;;;;;;9.60;99.90;;;;;;5107285;27;19968;-80
2023/12/29 01:49:48;;;;;;;;;;;9.60;99.90;;;;;;5092321;27;19923;-80
2023/12/29 01:52:15;;;;;;;;;;;9.60;99.90;;;;;;5090272;27;19934;-80
2023/12/29 01:54:42;;;;;;;;;;;9.60;99.90;;;;;;5107207;27;20325;-81
2023/12/29 01:57:08;;;;;;;;;;;9.60;99.90;;;;;;5087925;27;19927;-81
2023/12/29 01:59:34;;;;;;;;;;;9.60;99.90;;;;;;5104471;27;19939;-82
2023/12/29 02:02:00;;;;;;;;;;;9.60;99.90;;;;;;5100447;27;19933;-80
2023/12/29 02:04:26;;;;;;;;;;;9.60;99.90;;;;;;5093539;27;19978;-82
2023/12/29 02:06:52;;;;;;;;;;;9.60;99.90;;;;;;5102260;27;19980;-85
2023/12/29 02:09:18;;;;;;;;;;;9.60;99.90;;;;;;5090135;27;20066;-82
2023/12/29 02:11:47;;;;;;;;;;;9.60;99.90;;;;;;5101556;27;19950;-80
2023/12/29 02:14:17;;;;;;;;;;;9.60;99.90;;;;;;5102115;27;22145;-80
2023/12/29 02:16:50;;;;;;;;;;;9.60;99.90;;;;;;5101606;27;20430;-83
2023/12/29 02:19:22;;;;;;;;;;;9.60;99.90;;;;;;5104861;27;19938;-80
2023/12/29 02:21:48;;;;;;;;;;;9.60;99.90;;;;;;5098988;27;19938;-80
2023/12/29 02:24:13;;;;;;;;;;;9.60;99.90;;;;;;5102368;27;19931;-78
2023/12/29 02:26:41;;;;;;;;;;;9.70;99.90;;;;;;5100692;27;20770;-79
2023/12/29 02:29:08;;;;;;;;;;;10.60;99.90;;;;;;5102528;27;20361;-80
2023/12/29 02:31:35;;;;;;;;;;;9.80;99.90;;;;;;5105341;27;20032;-83
2023/12/29 02:34:03;;;;;;;;;;;9.80;99.90;;;;;;5098833;27;19931;-81
2023/12/29 02:36:29;;;;;;;;;;;9.70;99.90;;;;;;5091039;27;19927;-79
2023/12/29 02:38:55;;;;;;;;;;;9.70;99.90;;;;;;5090431;27;19976;-82
2023/12/29 02:41:21;;;;;;;;;;;9.80;99.90;;;;;;5084970;27;19931;-80
2023/12/29 02:43:46;;;;;;;;;;;9.80;99.90;;;;;;5082741;27;21063;-82
2023/12/29 02:46:12;;;;;;;;;;;9.80;99.90;;;;;;5088356;27;21187;-79
2023/12/29 02:48:37;;;;;;;;;;;9.70;99.90;;;;;;5089316;27;20245;-82
2023/12/29 02:51:03;;;;;;;;;;;9.70;99.90;;;;;;5086348;27;19991;-80
2023/12/29 02:53:29;;;;;;;;;;;9.70;99.90;;;;;;5086330;27;20803;-81
2023/12/29 02:55:54;;;;;;;;;;;9.60;99.90;;;;;;5082849;27;20015;-79
2023/12/29 02:58:20;;;;;;;;;;;9.60;99.90;;;;;;5098467;27;20406;-82
2023/12/29 03:00:46;;;;;;;;;;;9.70;99.90;;;;;;5068117;27;19931;-79
2023/12/29 03:03:11;;;;;;;;;;;9.70;99.90;;;;;;5098685;27;21860;-82
2023/12/29 03:05:37;;;;;;;;;;;9.70;99.90;;;;;;5098469;27;20022;-81
2023/12/29 03:08:03;;;;;;;;;;;9.70;99.90;;;;;;5080995;27;20003;-81
2023/12/29 03:10:28;;;;;;;;;;;9.70;99.90;;;;;;5086450;27;19929;-83
2023/12/29 03:12:54;;;;;;;;;;;9.70;99.90;;;;;;5084144;27;20292;-83
2023/12/29 03:15:19;;;;;;;;;;;9.70;99.90;;;;;;5102899;27;19938;-82
2023/12/29 03:17:45;;;;;;;;;;;9.70;99.90;;;;;;5079663;27;19931;-81
2023/12/29 03:20:11;;;;;;;;;;;9.70;99.90;;;;;;5084286;27;19954;-81
2023/12/29 03:22:42;;;;;;;;;;;9.70;99.90;;;;;;5106037;27;19982;-83
2023/12/29 03:25:08;;;;;;;;;;;9.70;99.90;;;;;;5096563;27;20381;-80
2023/12/29 03:27:34;;;;;;;;;;;9.70;99.90;;;;;;5088014;27;19948;-83
2023/12/29 03:29:59;;;;;;;;;;;9.60;99.90;;;;;;5098396;27;19931;-80
2023/12/29 03:32:25;;;;;;;;;;;9.60;99.90;;;;;;5081546;27;19931;-82
2023/12/29 03:34:50;;;;;;;;;;;9.60;99.90;;;;;;5098523;27;20345;-80
2023/12/29 03:37:16;;;;;;;;;;;9.60;99.90;;;;;;5091223;27;19938;-79
2023/12/29 03:39:42;;;;;;;;;;;9.60;99.90;;;;;;5085849;27;19930;-80
2023/12/29 03:42:07;;;;;;;;;;;9.60;99.90;;;;;;5086822;27;20034;-79
2023/12/29 03:44:33;;;;;;;;;;;9.60;99.90;;;;;;5099994;27;20433;-82
2023/12/29 03:46:59;;;;;;;;;;;9.60;99.90;;;;;;5094795;27;19966;-81
2023/12/29 03:49:24;;;;;;;;;;;9.50;99.90;;;;;;5096700;27;19976;-80
2023/12/29 03:51:50;;;;;;;;;;;8.80;99.90;;;;;;5095898;27;19931;-81
2023/12/29 03:54:18;;;;;;;;;;;9.50;99.90;;;;;;5095885;27;20052;-82
2023/12/29 03:56:43;;;;;;;;;;;9.50;99.90;;;;;;5102650;27;20069;-80
2023/12/29 03:59:09;;;;;;;;;;;9.50;99.90;;;;;;5082782;27;19927;-81
2023/12/29 04:01:35;;;;;;;;;;;9.50;99.90;;;;;;5097219;27;19934;-81
2023/12/29 04:04:00;;;;;;;;;;;9.50;99.90;;;;;;5097852;27;19959;-80
2023/12/29 04:06:26;;;;;;;;;;;9.50;99.90;;;;;;5096433;27;20014;-82
2023/12/29 04:08:51;;;;;;;;;;;9.50;99.90;;;;;;5100507;27;19937;-79
2023/12/29 04:11:17;;;;;;;;;;;8.80;99.90;;;;;;5088569;27;19934;-82
2023/12/29 04:13:43;;;;;;;;;;;9.40;99.90;;;;;;5081933;27;20381;-80
2023/12/29 04:16:08;;;;;;;;;;;9.40;99.90;;;;;;5097142;27;20018;-79
2023/12/29 04:18:34;;;;;;;;;;;9.40;99.90;;;;;;5096604;27;20002;-80
2023/12/29 04:20:59;;;;;;;;;;;9.40;99.90;;;;;;5081512;27;19927;-80
2023/12/29 04:23:25;;;;;;;;;;;9.40;99.90;;;;;;5083497;27;19938;-80
2023/12/29 04:25:51;;;;;;;;;;;9.40;99.90;;;;;;5071836;27;20389;-80
2023/12/29 04:28:16;;;;;;;;;;;9.40;99.90;;;;;;5097394;27;20045;-81
2023/12/29 04:30:42;;;;;;;;;;;9.50;99.90;;;;;;5092880;27;19938;-81
2023/12/29 04:33:08;;;;;;;;;;;9.40;99.90;;;;;;5116419;27;19935;-81
2023/12/29 04:35:33;;;;;;;;;;;9.40;99.90;;;;;;5097255;27;19927;-79
2023/12/29 04:37:59;;;;;;;;;;;9.40;99.90;;;;;;5089030;27;19938;-80
2023/12/29 04:40:24;;;;;;;;;;;9.40;99.90;;;;;;5097207;27;19983;-82
2023/12/29 04:42:50;;;;;;;;;;;9.40;99.90;;;;;;5106282;27;19931;-79
2023/12/29 04:45:16;;;;;;;;;;;9.40;99.90;;;;;;5086722;27;20300;-80
2023/12/29 04:47:42;;;;;;;;;;;9.40;99.90;;;;;;5103527;27;19938;-80
2023/12/29 04:50:07;;;;;;;;;;;9.40;99.90;;;;;;5090294;27;19927;-79
2023/12/29 04:52:34;;;;;;;;;;;9.40;99.90;;;;;;5106699;27;19927;-79
2023/12/29 04:54:59;;;;;;;;;;;9.40;99.90;;;;;;5084906;27;19927;-79
2023/12/29 04:57:25;;;;;;;;;;;9.40;99.90;;;;;;5086008;27;19931;-81
2023/12/29 04:59:50;;;;;;;;;;;9.40;99.90;;;;;;5101720;27;20014;-80
2023/12/29 05:02:16;;;;;;;;;;;9.40;99.90;;;;;;5101121;27;20659;-81
2023/12/29 05:04:42;;;;;;;;;;;9.40;99.90;;;;;;5089068;27;20022;-79
2023/12/29 05:07:08;;;;;;;;;;;9.40;99.90;;;;;;5089785;27;19927;-80
2023/12/29 05:09:34;;;;;;;;;;;9.40;99.90;;;;;;5106406;27;19927;-81
2023/12/29 05:11:59;;;;;;;;;;;9.40;99.90;;;;;;5100448;27;19931;-79
2023/12/29 05:14:25;;;;;;;;;;;9.40;99.90;;;;;;5100498;27;20420;-78
2023/12/29 05:16:50;;;;;;;;;;;9.40;99.90;;;;;;5088066;27;20358;-81
2023/12/29 05:19:16;;;;;;;;;;;9.40;99.90;;;;;;5085833;27;19931;-82
2023/12/29 05:21:42;;;;;;;;;;;9.40;99.90;;;;;;5098926;27;19974;-80
2023/12/29 05:24:07;;;;;;;;;;;9.40;99.90;;;;;;5118110;27;19923;-82
2023/12/29 05:26:33;;;;;;;;;;;9.40;99.90;;;;;;5084752;27;20391;-81
2023/12/29 05:28:59;;;;;;;;;;;9.40;99.90;;;;;;5097492;27;19927;-80
2023/12/29 05:31:25;;;;;;;;;;;9.40;99.90;;;;;;5099742;27;20072;-81
2023/12/29 05:33:51;;;;;;;;;;;9.40;99.90;;;;;;5087534;27;19942;-80
2023/12/29 05:36:16;;;;;;;;;;;9.40;99.90;;;;;;5085377;27;19931;-81
2023/12/29 05:38:45;;;;;;;;;;;9.40;99.90;;;;;;5102326;27;19975;-81
2023/12/29 05:41:13;;;;;;;;;;;9.30;99.90;;;;;;5087184;27;19938;-81
2023/12/29 05:43:38;;;;;;;;;;;9.40;99.90;;;;;;5102636;27;19930;-81
2023/12/29 05:46:08;;;;;;;;;;;9.40;99.90;;;;;;5084859;27;20063;-78
2023/12/29 05:48:34;;;;;;;;;;;9.40;99.90;;;;;;5097662;27;19987;-78
2023/12/29 05:51:05;;;;;;;;;;;9.40;99.90;;;;;;5088111;27;19931;-79
2023/12/29 05:53:30;;;;;;;;;;;9.40;99.90;;;;;;5097887;27;20690;-81
2023/12/29 05:55:56;;;;;;;;;;;9.40;99.90;;;;;;5086407;27;20083;-81
2023/12/29 05:58:22;;;;;;;;;;;9.40;99.90;;;;;;5086562;27;19931;-80
2023/12/29 06:00:47;;;;;;;;;;;9.40;99.90;;;;;;5118748;27;20014;-80
2023/12/29 06:03:13;;;;;;;;;;;9.40;99.90;;;;;;5101566;27;19939;-79
2023/12/29 06:05:39;;;;;;;;;;;9.50;99.90;;;;;;5103515;27;20297;-80
2023/12/29 06:08:05;;;;;;;;;;;9.40;99.90;;;;;;5096531;27;19935;-79
2023/12/29 06:10:31;;;;;;;;;;;9.40;99.90;;;;;;5083631;27;19963;-79
2023/12/29 06:12:56;;;;;;;;;;;9.40;99.90;;;;;;5116022;27;20054;-80
2023/12/29 06:15:22;;;;;;;;;;;9.40;99.90;;;;;;5081084;27;19934;-81
2023/12/29 06:17:48;;;;;;;;;;;9.40;99.90;;;;;;5093906;27;20378;-80
2023/12/29 06:20:13;;;;;;;;;;;9.40;99.90;;;;;;5093285;27;20404;-79
2023/12/29 06:22:40;;;;;;;;;;;9.40;99.90;;;;;;5087206;27;19923;-80
2023/12/29 06:25:10;;;;;;;;;;;9.40;99.90;;;;;;5084494;27;19935;-80
2023/12/29 06:27:40;;;;;;;;;;;9.40;99.90;;;;;;5102587;27;19927;-80
2023/12/29 06:30:06;;;;;;;;;;;9.40;99.90;;;;;;5095299;27;19934;-79
2023/12/29 06:32:32;;;;;;;;;;;9.40;99.90;;;;;;5068041;27;19937;-82
2023/12/29 06:34:58;;;;;;;;;;;9.40;99.90;;;;;;5100781;27;19923;-81
2023/12/29 06:37:23;;;;;;;;;;;9.40;99.90;;;;;;5086401;27;19931;-78
2023/12/29 06:39:49;;;;;;;;;;;9.40;99.90;;;;;;5097726;27;19927;-82
2023/12/29 06:42:15;;;;;;;;;;;9.40;99.90;;;;;;5082530;27;20432;-81
2023/12/29 06:44:40;;;;;;;;;;;9.40;99.90;;;;;;5099538;27;19923;-79
2023/12/29 06:47:06;;;;;;;;;;;9.40;99.90;;;;;;5097759;27;20393;-79
2023/12/29 06:49:34;;;;;;;;;;;9.40;99.90;;;;;;5097895;27;19934;-81
2023/12/29 06:51:59;;;;;;;;;;;9.50;99.90;;;;;;5093574;27;20418;-79
2023/12/29 06:54:25;;;;;;;;;;;9.40;99.90;;;;;;5100926;27;20018;-81
2023/12/29 06:56:51;;;;;;;;;;;9.40;99.90;;;;;;5084561;27;20000;-82
2023/12/29 06:59:18;;;;;;;;;;;9.50;99.90;;;;;;5089102;27;19934;-78
2023/12/29 07:01:44;;;;;;;;;;;9.50;99.90;;;;;;5080349;27;20022;-79
2023/12/29 07:04:10;;;;;;;;;;;9.50;99.90;;;;;;5084197;27;20374;-82
2023/12/29 07:06:36;;;;;;;;;;;9.50;99.90;;;;;;5113964;27;20345;-81
2023/12/29 07:09:02;;;;;;;;;;;10.30;99.90;;;;;;5073135;27;20065;-80
2023/12/29 07:11:28;;;;;;;;;;;9.50;99.90;;;;;;5115092;27;19937;-80
2023/12/29 07:13:54;;;;;;;;;;;9.50;99.90;;;;;;5078243;27;19991;-81
2023/12/29 07:16:20;;;;;;;;;;;9.50;99.90;;;;;;5096267;27;19980;-80
2023/12/29 07:18:46;;;;;;;;;;;9.50;99.90;;;;;;5100153;27;22690;-80
2023/12/29 07:21:12;;;;;;;;;;;9.60;99.90;;;;;;5087076;27;19928;-80
2023/12/29 07:23:38;;;;;;;;;;;9.50;99.90;;;;;;5078888;27;20013;-80
2023/12/29 07:26:04;;;;;;;;;;;9.50;99.90;;;;;;5087162;27;19927;-82
2023/12/29 07:28:31;;;;;;;;;;;9.50;99.90;;;;;;5086986;27;19923;-80
2023/12/29 07:30:57;;;;;;;;;;;9.50;99.90;;;;;;5101697;27;19994;-81
2023/12/29 07:33:24;;;;;;;;;;;9.50;99.90;;;;;;5096532;27;19954;-81
2023/12/29 07:35:50;;;;;;;;;;;9.50;99.90;;;;;;5099391;27;19987;-81
2023/12/29 07:38:15;;;;;;;;;;;9.50;99.90;;;;;;5090377;27;19959;-81
2023/12/29 07:40:41;;;;;;;;;;;9.50;99.90;;;;;;5090460;27;19927;-80
2023/12/29 07:43:13;;;;;;;;;;;9.50;99.90;;;;;;5104057;27;19932;-80
2023/12/29 07:45:38;;;;;;;;;;;9.50;99.90;;;;;;5084327;27;19981;-81
2023/12/29 07:48:04;;;;;;;;;;;9.50;99.90;;;;;;5100520;27;20552;-81
2023/12/29 07:50:30;;;;;;;;;;;9.50;99.90;;;;;;5100846;27;19927;-81
2023/12/29 07:52:55;;;;;;;;;;;9.50;99.90;;;;;;5100196;27;19923;-80
2023/12/29 07:55:21;;;;;;;;;;;9.50;99.90;;;;;;5098345;27;20445;-82
2023/12/29 07:57:48;;;;;;;;;;;9.50;99.90;;;;;;5104350;27;19927;-82
2023/12/29 08:00:17;;;;;;;;;;;9.50;99.90;;;;;;5087251;27;19963;-79
2023/12/29 08:02:42;;;;;;;;;;;9.50;99.90;;;;;;5100431;27;20389;-82
2023/12/29 08:05:08;;;;;;;;;;;9.50;99.90;;;;;;5100940;27;20045;-80
2023/12/29 08:07:34;;;;;;;;;;;9.50;99.90;;;;;;5093442;27;20019;-81
2023/12/29 08:10:00;;;;;;;;;;;9.40;99.90;;;;;;5076995;27;20400;-81
2023/12/29 08:12:26;;;;;;;;;;;9.50;99.90;;;;;;5108305;27;19997;-82
2023/12/29 08:14:51;;;;;;;;;;;9.50;99.90;;;;;;5081448;27;20038;-81
2023/12/29 08:17:18;;;;;;;;;;;9.40;99.90;;;;;;5104709;27;19923;-82
2023/12/29 08:19:43;;;;;;;;;;;9.40;99.90;;;;;;5104089;27;19927;-80
2023/12/29 08:22:09;;;;;;;;;;;9.40;99.90;;;;;;5112411;27;19975;-80
2023/12/29 08:24:35;;;;;;;;;;;9.40;99.90;;;;;;5096147;27;20365;-81
2023/12/29 08:27:00;;;;;;;;;;;9.30;99.90;;;;;;5092056;27;20290;-81
2023/12/29 08:29:26;;;;;;;;;;;9.30;99.90;;;;;;5110202;27;19941;-82
2023/12/29 08:31:52;;;;;;;;;;;9.40;99.90;;;;;;5101449;27;20271;-82
2023/12/29 08:34:18;;;;;;;;;;;9.30;99.90;;;;;;5092458;27;20017;-80
2023/12/29 08:36:43;;;;;;;;;;;9.30;99.90;;;;;;5108192;27;19948;-79
2023/12/29 08:39:09;;;;;;;;;;;9.30;99.90;;;;;;5105860;27;20666;-80
2023/12/29 08:41:35;;;;;;;;;;;9.30;99.90;;;;;;5096851;27;19939;-81
2023/12/29 08:44:00;;;;;;;;;;;9.30;99.90;;;;;;5110847;27;20337;-80
2023/12/29 08:46:26;;;;;;;;;;;9.30;99.90;;;;;;5100489;27;19927;-82
2023/12/29 08:48:52;;;;;;;;;;;9.40;99.90;;;;;;5107120;27;19971;-81
2023/12/29 08:51:17;;;;;;;;;;;9.40;99.90;;;;;;5104432;27;20844;-79
2023/12/29 08:53:43;;;;;;;;;;;9.40;99.90;;;;;;5108669;27;20014;-79
2023/12/29 08:56:09;;;;;;;;;;;9.50;99.90;;;;;;5108476;27;19927;-80
2023/12/29 08:58:34;;;;;;;;;;;9.50;99.90;;;;;;5109099;27;20534;-81
2023/12/29 09:01:00;;;;;;;;;;;9.50;99.90;;;;;;5108233;27;20332;-79
2023/12/29 09:03:26;;;;;;;;;;;9.50;99.90;;;;;;5096063;27;19937;-81
2023/12/29 09:05:51;;;;;;;;;;;9.50;99.90;;;;;;5107401;27;19931;-79
2023/12/29 09:08:17;;;;;;;;;;;9.60;99.90;;;;;;5101115;27;19927;-81
2023/12/29 09:10:42;;;;;;;;;;;9.60;99.90;;;;;;5117384;27;20376;-79
2023/12/29 09:13:09;;;;;;;;;;;9.60;99.90;;;;;;5107530;27;19937;-78
2023/12/29 09:15:41;;;;;;;;;;;9.60;99.90;;;;;;5098655;27;19972;-80
2023/12/29 09:18:07;;;;;;;;;;;9.60;99.90;;;;;;5090369;27;20801;-79
2023/12/29 09:20:32;;;;;;;;;;;9.70;99.90;;;;;;5094110;27;20468;-81
2023/12/29 09:22:59;;;;;;;;;;;9.70;99.90;;;;;;5101909;27;19968;-82
2023/12/29 09:25:25;;;;;;;;;;;9.60;99.90;;;;;;5098692;27;19931;-81
2023/12/29 09:27:52;;;;;;;;;;;9.70;99.90;;;;;;5088583;27;19975;-81
2023/12/29 09:30:18;;;;;;;;;;;9.60;99.90;;;;;;5107249;27;19942;-81
2023/12/29 09:32:44;;;;;;;;;;;9.60;99.90;;;;;;5111446;27;19923;-80
2023/12/29 09:35:09;;;;;;;;;;;9.60;99.90;;;;;;5112889;27;20445;-82
2023/12/29 09:37:35;;;;;;;;;;;9.60;99.90;;;;;;5075355;27;20590;-82
2023/12/29 09:40:01;;;;;;;;;;;9.60;99.90;;;;;;5118869;27;19931;-79
2023/12/29 09:42:30;;;;;;;;;;;9.60;99.90;;;;;;5123831;27;20011;-81
2023/12/29 09:44:56;;;;;;;;;;;9.60;99.90;;;;;;5105226;27;19934;-80
2023/12/29 09:47:24;;;;;;;;;;;9.60;99.90;;;;;;5094303;27;19927;-81
2023/12/29 09:49:51;;;;;;;;;;;9.60;99.90;;;;;;5092640;27;19928;-80
2023/12/29 09:52:16;;;;;;;;;;;9.60;99.90;;;;;;5088788;27;20034;-81
2023/12/29 09:54:42;;;;;;;;;;;9.60;99.90;;;;;;5111638;27;19937;-82
2023/12/29 09:57:09;;;;;;;;;;;9.60;99.90;;;;;;5109717;27;20443;-81
2023/12/29 09:59:36;;;;;;;;;;;9.60;99.90;;;;;;5127450;27;19970;-81
2023/12/29 10:02:04;;;;;;;;;;;9.60;99.90;;;;;;5096207;27;19927;-81
2023/12/29 10:04:30;;;;;;;;;;;9.50;99.90;;;;;;5108507;27;19924;-81
2023/12/29 10:06:56;;;;;;;;;;;9.50;99.90;;;;;;5103004;27;19927;-81
2023/12/29 10:09:24;;;;;;;;;;;9.50;99.90;;;;;;5103448;27;19979;-81
2023/12/29 10:11:50;;;;;;;;;;;9.50;99.90;;;;;;5101782;27;20014;-80
2023/12/29 10:14:22;;;;;;;;;;;9.50;99.90;;;;;;5070959;27;19934;-79
2023/12/29 10:16:54;;;;;;;;;;;9.50;99.90;;;;;;5086684;27;19926;-81
2023/12/29 10:19:27;;;;;;;;;;;9.50;99.90;;;;;;5111862;27;19987;-80
2023/12/29 10:22:03;;;;;;;;;;;9.50;99.90;;;;;;5098048;27;19927;-81
2023/12/29 10:24:29;;;;;;;;;;;9.40;99.90;;;;;;5099843;27;19947;-80
2023/12/29 10:26:55;;;;;;;;;;;9.40;99.90;;;;;;5091364;27;20385;-80
2023/12/29 10:29:21;;;;;;;;;;;9.40;99.90;;;;;;5108326;27;20061;-79
2023/12/29 10:31:50;;;;;;;;;;;9.50;99.90;;;;;;5109959;27;19935;-80
2023/12/29 10:34:28;;;;;;;;;;;9.70;99.90;;;;;;5113031;27;20072;-79
2023/12/29 10:36:55;;;;;;;;;;;9.80;99.90;;;;;;5105117;27;19939;-82
2023/12/29 10:39:20;;;;;;;;;;;9.80;99.90;;;;;;5103346;27;20005;-80
2023/12/29 10:41:46;;;;;;;;;;;9.80;99.90;;;;;;5102705;27;20392;-81
2023/12/29 10:44:12;;;;;;;;;;;9.80;99.90;;;;;;5108345;27;20363;-82
2023/12/29 10:46:38;;;;;;;;;;;9.90;99.90;;;;;;5091961;27;19931;-81
2023/12/29 10:49:08;;;;;;;;;;;9.80;99.90;;;;;;5087115;27;21436;-80
2023/12/29 10:51:34;;;;;;;;;;;10.00;99.90;;;;;;5096765;27;19992;-81
2023/12/29 10:54:00;;;;;;;;;;;10.20;99.90;;;;;;5107494;27;19927;-81
2023/12/29 10:56:26;;;;;;;;;;;10.10;99.90;;;;;;5100757;27;19927;-81
2023/12/29 10:59:02;;;;;;;;;;;10.00;99.90;;;;;;5113555;27;19936;-81
2023/12/29 11:01:34;;;;;;;;;;;9.90;99.90;;;;;;5093337;27;19934;-81
2023/12/29 11:04:04;;;;;;;;;;;9.70;99.90;;;;;;5112803;27;20010;-82
2023/12/29 11:06:39;;;;;;;;;;;9.70;99.90;;;;;;5097371;27;19950;-80
2023/12/29 11:09:05;;;;;;;;;;;9.70;99.90;;;;;;5108379;27;19971;-81
2023/12/29 11:11:31;;;;;;;;;;;9.60;99.90;;;;;;5105738;27;20449;-80
2023/12/29 11:13:57;;;;;;;;;;;9.60;99.90;;;;;;5084663;27;19988;-81
2023/12/29 11:16:24;;;;;;;;;;;9.60;99.90;;;;;;5110130;27;19932;-81
2023/12/29 11:18:51;;;;;;;;;;;9.60;99.90;;;;;;5089654;27;19934;-80
2023/12/29 11:21:18;;;;;;;;;;;9.90;99.90;;;;;;5107331;27;20590;-81
2023/12/29 11:23:43;;;;;;;;;;;9.50;99.90;;;;;;5104012;27;19931;-80
2023/12/29 11:26:09;;;;;;;;;;;9.40;99.90;;;;;;5096247;27;20089;-81
2023/12/29 11:28:35;;;;;;;;;;;9.40;99.90;;;;;;5107357;27;19951;-81
2023/12/29 11:31:00;;;;;;;;;;;9.50;99.90;;;;;;5101794;27;19924;-81
2023/12/29 11:33:30;;;;;;;;;;;9.50;99.90;;;;;;5084224;27;20674;-80
2023/12/29 11:36:04;;;;;;;;;;;9.50;99.90;;;;;;5102048;27;20139;-81
2023/12/29 11:38:49;;;;;;;;;;;9.50;99.90;;;;;;5086399;27;20293;-80
2023/12/29 11:41:18;;;;;;;;;;;9.60;99.90;;;;;;5102455;27;20393;-80
2023/12/29 11:43:44;;;;;;;;;;;9.60;99.90;;;;;;5092142;27;19987;-79
2023/12/29 11:46:28;;;;;;;;;;;9.60;99.90;;;;;;5081834;27;19930;-80
2023/12/29 11:48:57;;;;;;;;;;;9.50;99.90;;;;;;5110184;27;19931;-80
2023/12/29 11:51:35;;;;;;;;;;;9.50;99.90;;;;;;5109457;27;19931;-80
2023/12/29 11:54:02;;;;;;;;;;;9.50;99.90;;;;;;5105560;27;19931;-80
2023/12/29 11:56:36;;;;;;;;;;;9.40;99.90;;;;;;5094950;27;19966;-81
2023/12/29 11:59:14;;;;;;;;;;;9.30;99.90;;;;;;5098986;27;20013;-81
2023/12/29 12:01:39;;;;;;;;;;;9.20;99.90;;;;;;5097838;27;19927;-80
2023/12/29 12:04:25;;;;;;;;;;;9.20;99.90;;;;;;5105684;27;19975;-80
2023/12/29 12:06:50;;;;;;;;;;;9.10;99.90;;;;;;5087349;27;19981;-82
2023/12/29 12:09:25;;;;;;;;;;;9.10;99.90;;;;;;5089941;27;20065;-81
2023/12/29 12:11:51;;;;;;;;;;;9.10;99.90;;;;;;5098458;27;20849;-79
2023/12/29 12:14:37;;;;;;;;;;;9.10;99.90;;;;;;5104301;27;19938;-80
2023/12/29 12:17:03;;;;;;;;;;;9.10;99.90;;;;;;5077912;27;20346;-80
2023/12/29 12:19:32;;;;;;;;;;;9.10;99.90;;;;;;5087361;27;20454;-81
2023/12/29 12:21:59;;;;;;;;;;;9.00;99.90;;;;;;5086518;27;20398;-81
2023/12/29 12:24:26;;;;;;;;;;;9.00;99.90;;;;;;5106416;27;19935;-80
2023/12/29 12:26:52;;;;;;;;;;;9.00;99.90;;;;;;5111194;27;19923;-80
2023/12/29 12:29:19;;;;;;;;;;;9.00;99.90;;;;;;5091882;27;19988;-80
2023/12/29 12:31:51;;;;;;;;;;;9.00;99.90;;;;;;5104990;27;20208;-80
2023/12/29 12:34:17;;;;;;;;;;;8.90;99.90;;;;;;5105771;27;19931;-80
2023/12/29 12:36:52;;;;;;;;;;;9.00;99.90;;;;;;5083161;27;19938;-81
2023/12/29 12:39:18;;;;;;;;;;;9.00;99.90;;;;;;5117658;27;19938;-80
2023/12/29 12:41:44;;;;;;;;;;;9.00;99.90;;;;;;5096099;27;19931;-79
2023/12/29 12:44:16;;;;;;;;;;;9.00;99.90;;;;;;5109006;27;19927;-80
2023/12/29 12:46:49;;;;;;;;;;;9.00;99.90;;;;;;5110752;27;19927;-80
2023/12/29 12:49:15;;;;;;;;;;;9.00;99.90;;;;;;5093050;27;19927;-80
2023/12/29 12:51:41;;;;;;;;;;;9.00;99.90;;;;;;5092298;27;19949;-81
2023/12/29 12:54:07;;;;;;;;;;;9.00;99.90;;;;;;5112780;27;20374;-81
2023/12/29 12:56:33;;;;;;;;;;;9.00;99.90;;;;;;5095841;27;20024;-81
2023/12/29 12:58:58;;;;;;;;;;;8.90;99.90;;;;;;5109535;27;19927;-81
2023/12/29 13:01:25;;;;;;;;;;;8.90;99.90;;;;;;5102801;27;19969;-81
2023/12/29 13:03:51;;;;;;;;;;;9.00;99.90;;;;;;5095191;27;20327;-80
2023/12/29 13:06:17;;;;;;;;;;;8.90;99.90;;;;;;5105533;27;20346;-81
2023/12/29 13:08:43;;;;;;;;;;;8.90;99.90;;;;;;5081205;27;19931;-80
2023/12/29 13:11:09;;;;;;;;;;;8.90;99.90;;;;;;5112888;27;20356;-79
2023/12/29 13:13:36;;;;;;;;;;;8.90;99.90;;;;;;5108422;27;19930;-80
2023/12/29 13:16:01;;;;;;;;;;;8.90;99.90;;;;;;5093548;27;19927;-78
2023/12/29 13:18:33;;;;;;;;;;;8.90;99.90;;;;;;5092906;27;19934;-80
2023/12/29 13:21:00;;;;;;;;;;;8.90;99.90;;;;;;5083998;27;19959;-81
2023/12/29 13:23:27;;;;;;;;;;;8.90;99.90;;;;;;5114442;27;19931;-81
2023/12/29 13:26:04;;;;;;;;;;;8.90;99.90;;;;;;5118613;27;19934;-81
2023/12/29 13:28:30;;;;;;;;;;;8.90;99.90;;;;;;5102076;27;20381;-80
2023/12/29 13:30:56;;;;;;;;;;;8.90;99.90;;;;;;5103598;27;19979;-79
2023/12/29 13:33:41;;;;;;;;;;;8.90;99.90;;;;;;5106366;27;20066;-80
2023/12/29 13:36:10;;;;;;;;;;;8.90;99.90;;;;;;5114521;27;19984;-79
2023/12/29 13:38:43;;;;;;;;;;;8.90;99.90;;;;;;5119476;27;19995;-81
2023/12/29 13:41:11;;;;;;;;;;;8.90;99.90;;;;;;5096071;27;19953;-80
2023/12/29 13:43:42;;;;;;;;;;;9.00;99.90;;;;;;5099888;27;19933;-80
2023/12/29 13:46:09;;;;;;;;;;;9.00;99.90;;;;;;5107252;27;19938;-79
2023/12/29 13:48:35;;;;;;;;;;;9.00;99.90;;;;;;5104570;27;19927;-80
2023/12/29 13:51:01;;;;;;;;;;;9.00;99.90;;;;;;5102203;27;20373;-80
2023/12/29 13:53:26;;;;;;;;;;;8.90;99.90;;;;;;5112680;27;20132;-80
2023/12/29 13:55:52;;;;;;;;;;;8.90;99.90;;;;;;5131925;27;19931;-79
2023/12/29 13:58:18;;;;;;;;;;;8.90;99.90;;;;;;5110782;27;19976;-79
2023/12/29 14:00:45;;;;;;;;;;;8.90;99.90;;;;;;5101973;27;19927;-79
2023/12/29 14:03:16;;;;;;;;;;;8.90;99.90;;;;;;5112470;27;19935;-81
2023/12/29 14:05:51;;;;;;;;;;;8.90;99.90;;;;;;5108646;27;19938;-80
2023/12/29 14:08:21;;;;;;;;;;;8.90;99.90;;;;;;5120335;27;19927;-80
2023/12/29 14:10:47;;;;;;;;;;;8.80;99.90;;;;;;5102242;27;19934;-80
2023/12/29 14:13:18;;;;;;;;;;;8.80;99.90;;;;;;5112584;27;19934;-80
2023/12/29 14:15:45;;;;;;;;;;;8.80;99.90;;;;;;5112682;27;19924;-79
2023/12/29 14:18:22;;;;;;;;;;;8.80;99.90;;;;;;5104512;27;19925;-80
2023/12/29 14:20:48;;;;;;;;;;;8.80;99.90;;;;;;5108302;27;19986;-81
2023/12/29 14:23:17;;;;;;;;;;;8.80;99.90;;;;;;5118122;27;19980;-79
2023/12/29 14:25:46;;;;;;;;;;;8.80;99.90;;;;;;5106355;27;19931;-80